TimeCDT,TemperatureF,Dew PointF,Humidity,Sea Level PressureIn,VisibilityMPH,Wind Direction,Wind SpeedMPH,Gust SpeedMPH,PrecipitationIn,Events,Conditions,WindDirDegrees,DateUTC
12:45 AM,81,74,75,29.82,5,ESE,6.7,,,,Partly Cloudy,110,2013-04-30 05:45:00
3:45 AM,82,74,70,29.80,5,ESE,6.7,,,,Partly Cloudy,110,2013-04-30 08:45:00
5:45 AM,82.4,73.4,74,29.78,7.0,ESE,11.5,-,N/A,,Scattered Clouds,120,2013-04-30 10:45:00
6:43 AM,82.4,73.4,74,29.80,7.0,ESE,11.5,-,N/A,,Mostly Cloudy,120,2013-04-30 11:43:00
6:45 AM,82,75,73,29.82,6,ESE,6.7,,,,Mostly Cloudy,110,2013-04-30 11:45:00
7:42 AM,82.4,73.4,74,29.81,7.0,SE,17.3,-,N/A,,Mostly Cloudy,130,2013-04-30 12:42:00
8:42 AM,82.4,73.4,74,29.82,7.0,SE,11.5,-,N/A,,Mostly Cloudy,130,2013-04-30 13:42:00
9:43 AM,84.2,75.2,74,29.85,7.0,East,11.5,-,N/A,,Mostly Cloudy,90,2013-04-30 14:43:00
9:50 AM,88,74,55,29.86,6,ESE,6.7,,,,Partly Cloudy,120,2013-04-30 14:50:00
10:40 AM,84.2,75.2,74,29.84,7.0,ESE,17.3,-,N/A,,Scattered Clouds,120,2013-04-30 15:40:00
11:42 AM,84.2,75.2,74,29.83,7.0,ESE,17.3,-,N/A,,Scattered Clouds,120,2013-04-30 16:42:00
12:50 PM,92,73,46,29.82,6,ESE,6.7,,,,Scattered Clouds,120,2013-04-30 17:50:00
1:40 PM,86.0,75.2,70,29.80,7.0,East,11.5,-,N/A,,Scattered Clouds,90,2013-04-30 18:40:00
2:40 PM,89.6,77.0,66,29.76,7.0,East,11.5,-,N/A,,Scattered Clouds,100,2013-04-30 19:40:00
3:44 PM,89.6,77.0,66,29.75,7.0,East,17.3,-,N/A,,Scattered Clouds,100,2013-04-30 20:44:00
3:50 PM,91,75,50,29.77,6,ESE,6.7,,,,Scattered Clouds,120,2013-04-30 20:50:00
4:40 PM,89.6,77.0,66,29.74,7.0,East,11.5,-,N/A,,Clear,90,2013-04-30 21:40:00
5:45 PM,86.0,77.0,74,29.73,7.0,East,11.5,-,N/A,,Clear,90,2013-04-30 22:45:00
6:45 PM,86.0,77.0,74,29.75,7.0,East,9.2,-,N/A,,Clear,90,2013-04-30 23:45:00
6:50 PM,85,75,65,29.76,6,ESE,6.7,,,,Scattered Clouds,110,2013-04-30 23:50:00
7:45 PM,84.2,75.2,74,29.75,7.0,East,11.5,-,N/A,,Clear,100,2013-05-01 00:45:00
9:45 PM,82,76,76,29.81,5,East,6.7,,,,Partly Cloudy,90,2013-05-01 02:45:00